createdAt,value
2022-11-16T00:00:36.777Z,7.31
2022-11-16T00:01:39.059Z,7.34
2022-11-16T00:02:41.252Z,7.35
2022-11-16T00:03:43.536Z,7.35
2022-11-16T00:04:45.757Z,7.37
2022-11-16T00:05:47.947Z,7.36
2022-11-16T00:06:50.373Z,7.36
2022-11-16T00:07:52.727Z,7.35
2022-11-16T00:09:15.795Z,7.34
2022-11-16T00:10:18.074Z,7.31
2022-11-16T00:11:20.158Z,7.32
2022-11-16T00:12:22.363Z,7.30
2022-11-16T00:13:24.519Z,7.30
2022-11-16T00:14:31.147Z,7.26
2022-11-16T00:15:33.331Z,7.27
2022-11-16T00:16:35.618Z,7.31
2022-11-16T00:17:37.825Z,7.30
2022-11-16T00:18:40.059Z,7.28
2022-11-16T00:19:42.287Z,7.31
2022-11-16T00:20:44.990Z,7.32
2022-11-16T00:21:47.513Z,7.33
2022-11-16T00:22:49.755Z,7.36
2022-11-16T00:23:51.970Z,7.38
2022-11-16T00:24:54.101Z,7.39
2022-11-16T00:25:56.282Z,7.40
2022-11-16T00:26:58.608Z,7.40
2022-11-16T00:28:01.025Z,7.40
2022-11-16T00:29:03.388Z,7.39
2022-11-16T00:30:05.953Z,7.38
2022-11-16T00:31:08.516Z,7.40
2022-11-16T00:32:10.962Z,7.42
2022-11-16T00:33:18.412Z,7.42
2022-11-16T00:34:21.436Z,7.42
2022-11-16T00:35:23.546Z,7.36
2022-11-16T00:36:25.822Z,7.35
2022-11-16T00:37:28.062Z,7.37
2022-11-16T00:38:30.718Z,7.40
2022-11-16T00:39:33.225Z,7.41
2022-11-16T00:40:35.401Z,7.43
2022-11-16T00:41:37.679Z,7.43
2022-11-16T00:42:39.923Z,7.42
2022-11-16T00:43:42.317Z,7.43
2022-11-16T00:44:44.605Z,7.41
2022-11-16T00:45:46.925Z,7.40
2022-11-16T00:46:49.196Z,7.39
2022-11-16T00:47:55.227Z,7.38
2022-11-16T00:49:00.419Z,7.40
2022-11-16T00:50:02.800Z,7.39
2022-11-16T00:51:05.418Z,7.39
2022-11-16T00:52:07.705Z,7.39
2022-11-16T00:53:13.619Z,7.40
2022-11-16T00:54:16.349Z,7.40
2022-11-16T00:55:18.484Z,7.38
2022-11-16T00:56:20.879Z,7.40
2022-11-16T00:57:31.500Z,7.43
2022-11-16T00:58:33.863Z,7.45
2022-11-16T00:59:41.208Z,7.45
2022-11-16T01:00:44.426Z,7.45
2022-11-16T01:01:46.758Z,7.41
2022-11-16T01:02:49.324Z,7.42
2022-11-16T01:03:51.936Z,7.41
2022-11-16T01:04:54.866Z,7.39
2022-11-16T01:06:02.399Z,7.37
2022-11-16T01:07:06.429Z,7.37
2022-11-16T01:08:09.458Z,7.39
2022-11-16T01:09:12.730Z,7.39
2022-11-16T01:10:17.699Z,7.40
2022-11-16T01:11:38.551Z,7.40
2022-11-16T01:12:41.529Z,7.44
2022-11-16T01:13:43.899Z,7.44
2022-11-16T01:14:47.684Z,7.46
2022-11-16T01:15:50.011Z,7.46
2022-11-16T01:16:52.266Z,7.44
2022-11-16T01:17:56.752Z,7.45
2022-11-16T01:18:59.694Z,7.45
2022-11-16T01:20:02.501Z,7.47
2022-11-16T01:21:07.236Z,7.47
2022-11-16T01:22:09.892Z,7.48
2022-11-16T01:23:12.674Z,7.48
2022-11-16T01:24:14.950Z,7.55
2022-11-16T01:25:17.488Z,7.51
2022-11-16T01:26:19.870Z,7.52
2022-11-16T01:27:22.433Z,7.47
2022-11-16T01:28:24.938Z,7.46
2022-11-16T01:29:29.359Z,7.45
2022-11-16T01:30:34.634Z,7.49
2022-11-16T01:31:41.304Z,7.49
2022-11-16T01:32:44.041Z,7.47
2022-11-16T01:33:46.458Z,7.49
2022-11-16T01:35:01.756Z,7.50
2022-11-16T01:36:14.926Z,7.53
2022-11-16T01:37:19.298Z,7.54
2022-11-16T01:38:23.931Z,7.54
2022-11-16T01:39:29.500Z,7.54
2022-11-16T01:40:36.616Z,7.54
2022-11-16T01:41:40.650Z,7.55
2022-11-16T01:42:42.942Z,7.55
2022-11-16T01:43:59.916Z,7.55
2022-11-16T01:45:22.900Z,7.54
2022-11-16T01:46:28.722Z,7.55
2022-11-16T01:47:31.880Z,7.54
2022-11-16T01:48:35.822Z,7.51
2022-11-16T01:49:43.577Z,7.50
2022-11-16T01:50:48.444Z,7.52
2022-11-16T01:51:56.529Z,7.52
2022-11-16T01:53:02.761Z,7.53
2022-11-16T01:54:13.104Z,7.51
2022-11-16T01:55:27.070Z,7.50
2022-11-16T01:56:45.902Z,7.51
2022-11-16T01:57:58.299Z,7.54
2022-11-16T01:59:01.141Z,7.56
2022-11-16T02:00:06.754Z,7.54
2022-11-16T02:01:26.274Z,7.52
2022-11-16T02:02:32.623Z,7.51
2022-11-16T02:03:38.126Z,7.54
2022-11-16T02:04:40.722Z,7.54
2022-11-16T02:06:05.570Z,7.48
2022-11-16T02:07:27.378Z,7.46
2022-11-16T02:09:30.226Z,7.49
2022-11-16T02:10:58.399Z,7.52
2022-11-16T02:12:31.534Z,7.53
2022-11-16T02:13:58.302Z,7.53
2022-11-16T02:15:08.633Z,7.52
2022-11-16T02:16:13.911Z,7.54
2022-11-16T02:17:40.988Z,7.55
2022-11-16T02:19:20.090Z,7.56
2022-11-16T02:20:25.038Z,7.56
2022-11-16T02:21:52.259Z,7.56
2022-11-16T02:23:25.914Z,7.53
2022-11-16T02:24:44.044Z,7.54
2022-11-16T02:25:59.884Z,7.55
2022-11-16T02:27:42.524Z,7.55
2022-11-16T02:29:21.055Z,7.55
2022-11-16T02:30:24.270Z,7.56
2022-11-16T02:31:36.302Z,7.56
2022-11-16T02:32:55.011Z,7.57
2022-11-16T02:33:59.411Z,7.55
2022-11-16T02:35:20.067Z,7.59
2022-11-16T02:36:25.112Z,7.58
2022-11-16T02:37:32.113Z,7.58
2022-11-16T02:38:39.119Z,7.57
2022-11-16T02:39:43.490Z,7.55
2022-11-16T02:40:50.050Z,7.54
2022-11-16T02:41:58.493Z,7.55
2022-11-16T02:43:09.326Z,7.52
2022-11-16T02:44:16.054Z,7.54
2022-11-16T02:45:25.236Z,7.53
2022-11-16T02:46:31.322Z,7.53
2022-11-16T02:47:36.988Z,7.50
2022-11-16T02:48:46.631Z,7.50
2022-11-16T02:49:56.467Z,7.49
2022-11-16T02:50:58.895Z,7.51
2022-11-16T02:52:02.116Z,7.54
2022-11-16T02:53:04.497Z,7.55
2022-11-16T02:54:15.565Z,7.56
2022-11-16T02:55:22.714Z,7.55
2022-11-16T02:56:25.912Z,7.55
2022-11-16T02:57:49.457Z,7.56
2022-11-16T02:58:51.786Z,7.55
2022-11-16T02:59:57.497Z,7.55
2022-11-16T03:01:08.867Z,7.54
2022-11-16T03:02:48.409Z,7.53
2022-11-16T03:04:17.060Z,7.49
2022-11-16T03:05:32.264Z,7.52
2022-11-16T03:06:41.670Z,7.53
2022-11-16T03:07:48.630Z,7.55
2022-11-16T03:08:56.840Z,7.56
2022-11-16T03:10:00.372Z,7.56
2022-11-16T03:11:27.254Z,7.54
2022-11-16T03:12:35.243Z,7.51
2022-11-16T03:13:38.898Z,7.48
2022-11-16T03:14:49.143Z,7.50
2022-11-16T03:15:54.928Z,7.48
2022-11-16T03:17:00.678Z,7.46
2022-11-16T03:18:04.451Z,7.48
2022-11-16T03:19:10.862Z,7.50
2022-11-16T03:20:20.823Z,7.53
2022-11-16T03:21:30.538Z,7.55
2022-11-16T03:22:39.711Z,7.56
2022-11-16T03:23:42.898Z,7.57
2022-11-16T03:24:45.456Z,7.57
2022-11-16T03:25:52.502Z,7.58
2022-11-16T03:27:08.204Z,7.57
2022-11-16T03:28:17.982Z,7.59
2022-11-16T03:29:30.708Z,7.56
2022-11-16T03:30:43.457Z,7.56
2022-11-16T03:31:50.159Z,7.55
2022-11-16T03:33:03.539Z,7.52
2022-11-16T03:34:12.839Z,7.54
2022-11-16T03:35:21.659Z,7.54
2022-11-16T03:36:36.376Z,7.54
2022-11-16T03:37:40.343Z,7.55
2022-11-16T03:38:45.742Z,7.54
2022-11-16T03:39:50.692Z,7.55
2022-11-16T03:40:59.624Z,7.58
2022-11-16T03:42:04.555Z,7.59
2022-11-16T03:43:08.461Z,7.58
2022-11-16T03:44:11.560Z,7.60
2022-11-16T03:45:14.962Z,7.57
2022-11-16T03:46:18.082Z,7.56
2022-11-16T03:47:21.699Z,7.56
2022-11-16T03:48:24.454Z,7.61
2022-11-16T03:49:30.838Z,7.59
2022-11-16T03:50:33.396Z,7.57
2022-11-16T03:51:37.476Z,7.55
2022-11-16T03:52:39.881Z,7.54
2022-11-16T03:53:42.247Z,7.56
2022-11-16T03:54:46.200Z,7.55
2022-11-16T03:55:49.985Z,7.54
2022-11-16T03:56:52.888Z,7.55
2022-11-16T03:57:56.647Z,7.57
2022-11-16T03:58:59.723Z,7.59
2022-11-16T04:00:02.211Z,7.60
2022-11-16T04:01:06.064Z,7.59
2022-11-16T04:02:08.961Z,7.61
2022-11-16T04:03:11.621Z,7.64
2022-11-16T04:04:34.130Z,7.57
2022-11-16T04:06:12.011Z,7.58
2022-11-16T04:07:32.745Z,7.59
2022-11-16T04:08:53.381Z,7.58
2022-11-16T04:10:14.755Z,7.55
2022-11-16T04:11:39.240Z,7.49
2022-11-16T04:13:02.859Z,7.53
2022-11-16T04:14:24.124Z,7.56
2022-11-16T04:15:45.330Z,7.53
2022-11-16T04:17:06.082Z,7.53
2022-11-16T04:18:29.226Z,7.53
2022-11-16T04:19:54.026Z,7.53
2022-11-16T04:21:19.072Z,7.53
2022-11-16T04:22:46.857Z,7.54
2022-11-16T04:24:07.877Z,7.53
2022-11-16T04:25:34.734Z,7.54
2022-11-16T04:27:04.488Z,7.55
2022-11-16T04:28:13.926Z,7.51
2022-11-16T04:29:20.625Z,7.50
2022-11-16T04:30:22.917Z,7.51
2022-11-16T04:31:44.008Z,7.49
2022-11-16T04:33:06.067Z,7.47
2022-11-16T04:34:27.262Z,7.49
2022-11-16T04:35:51.442Z,7.50
2022-11-16T04:37:12.871Z,7.50
2022-11-16T04:38:16.200Z,7.50
2022-11-16T04:39:18.538Z,7.52
2022-11-16T04:40:29.657Z,7.53
2022-11-16T04:41:51.874Z,7.53
2022-11-16T04:42:56.569Z,7.55
2022-11-16T04:43:59.164Z,7.56
2022-11-16T04:45:22.797Z,7.55
2022-11-16T04:46:46.346Z,7.55
2022-11-16T04:47:49.990Z,7.56
2022-11-16T04:48:53.488Z,7.56
2022-11-16T04:49:55.760Z,7.57
2022-11-16T04:50:59.820Z,7.54
2022-11-16T04:52:02.513Z,7.54
2022-11-16T04:53:07.473Z,7.47
2022-11-16T04:54:17.907Z,7.53
2022-11-16T04:55:20.814Z,7.52
2022-11-16T04:56:24.833Z,7.51
2022-11-16T04:57:27.657Z,7.47
2022-11-16T04:58:30.947Z,7.51
2022-11-16T04:59:33.348Z,7.52
2022-11-16T05:00:35.770Z,7.52
2022-11-16T05:01:56.862Z,7.47
2022-11-16T05:03:01.476Z,7.48
2022-11-16T05:04:05.223Z,7.47
2022-11-16T05:05:08.307Z,7.48
2022-11-16T05:06:12.251Z,7.45
2022-11-16T05:07:15.233Z,7.45
2022-11-16T05:08:19.644Z,7.49
2022-11-16T05:09:23.881Z,7.45
2022-11-16T05:10:26.407Z,7.48
2022-11-16T05:11:29.843Z,7.49
2022-11-16T05:12:33.137Z,7.50
2022-11-16T05:13:37.358Z,7.45
2022-11-16T05:14:39.733Z,7.46
2022-11-16T05:15:45.634Z,7.45
2022-11-16T05:16:49.735Z,7.48
2022-11-16T05:17:54.995Z,7.49
2022-11-16T05:19:18.720Z,7.52
2022-11-16T05:20:39.910Z,7.49
2022-11-16T05:21:43.151Z,7.47
2022-11-16T05:22:45.693Z,7.48
2022-11-16T05:24:06.163Z,7.50
2022-11-16T05:25:09.636Z,7.51
2022-11-16T05:26:11.860Z,7.52
2022-11-16T05:27:16.050Z,7.50
2022-11-16T05:28:18.583Z,7.50
2022-11-16T05:29:21.034Z,7.51
2022-11-16T05:30:32.973Z,7.52
2022-11-16T05:31:40.430Z,7.53
2022-11-16T05:32:45.145Z,7.53
2022-11-16T05:33:48.998Z,7.53
2022-11-16T05:34:51.958Z,7.55
2022-11-16T05:35:54.284Z,7.55
2022-11-16T05:36:57.902Z,7.58
2022-11-16T05:38:00.355Z,7.58
2022-11-16T05:39:04.499Z,7.57
2022-11-16T05:40:10.353Z,7.56
2022-11-16T05:41:18.790Z,7.54
2022-11-16T05:42:21.202Z,7.56
2022-11-16T05:43:23.526Z,7.56
2022-11-16T06:07:24.431Z,7.54
2022-11-16T06:08:27.764Z,7.54
2022-11-16T06:09:36.826Z,7.55
2022-11-16T06:10:49.173Z,7.58
2022-11-16T06:11:51.662Z,7.58
2022-11-16T06:12:54.351Z,7.60
2022-11-16T06:13:57.265Z,7.58
2022-11-16T06:14:59.682Z,7.56
2022-11-16T06:16:05.138Z,7.56
2022-11-16T06:17:14.673Z,7.55
2022-11-16T06:18:18.124Z,7.53
2022-11-16T06:19:21.690Z,7.55
2022-11-16T06:20:24.470Z,7.58
2022-11-16T06:21:28.544Z,7.57
2022-11-16T06:22:31.578Z,7.52
2022-11-16T06:23:34.503Z,7.54
2022-11-16T06:24:37.224Z,7.56
2022-11-16T06:25:40.567Z,7.54
2022-11-16T06:26:43.029Z,7.56
2022-11-16T06:27:45.808Z,7.59
2022-11-16T06:28:55.051Z,7.58
2022-11-16T06:29:58.517Z,7.58
2022-11-16T06:31:05.142Z,7.60
2022-11-16T06:32:12.336Z,7.60
2022-11-16T06:33:15.080Z,7.61
2022-11-16T06:34:17.641Z,7.62
2022-11-16T06:35:19.970Z,7.61
2022-11-16T06:36:25.168Z,7.65
2022-11-16T06:37:28.534Z,7.63
2022-11-16T06:38:31.577Z,7.66
2022-11-16T06:39:34.001Z,7.68
2022-11-16T06:40:38.458Z,7.68
2022-11-16T06:41:41.623Z,7.69
2022-11-16T06:42:47.473Z,7.68
2022-11-16T06:43:50.015Z,7.68
2022-11-16T06:44:56.088Z,7.68
2022-11-16T06:46:03.532Z,7.65
2022-11-16T06:47:06.701Z,7.67
2022-11-16T06:48:10.061Z,7.69
2022-11-16T06:49:12.330Z,7.68
2022-11-16T06:50:16.983Z,7.69
2022-11-16T06:51:19.434Z,7.69
2022-11-16T06:52:22.840Z,7.71
2022-11-16T06:53:29.256Z,7.72
2022-11-16T06:54:35.412Z,7.73
2022-11-16T06:55:38.388Z,7.72
2022-11-16T06:56:40.741Z,7.73
2022-11-16T06:57:43.231Z,7.69
2022-11-16T06:58:45.773Z,7.68
2022-11-16T06:59:50.134Z,7.72
2022-11-16T07:00:52.526Z,7.73
2022-11-16T07:01:55.243Z,7.75
2022-11-16T07:02:57.530Z,7.74
2022-11-16T07:03:59.837Z,7.77
2022-11-16T07:05:03.926Z,7.75
2022-11-16T07:06:11.603Z,7.74
2022-11-16T07:07:16.978Z,7.75
2022-11-16T07:08:21.496Z,7.76
2022-11-16T07:09:24.531Z,7.78
2022-11-16T07:10:27.235Z,7.78
2022-11-16T07:11:29.739Z,7.78
2022-11-16T07:12:33.497Z,7.77
2022-11-16T07:13:38.598Z,7.76
2022-11-16T07:14:42.385Z,7.72
2022-11-16T07:15:46.139Z,7.74
2022-11-16T07:16:48.803Z,7.71
2022-11-16T07:17:51.041Z,7.70
2022-11-16T07:18:56.651Z,7.71
2022-11-16T07:20:00.150Z,7.74
2022-11-16T07:21:11.608Z,7.77
2022-11-16T07:22:14.378Z,7.77
2022-11-16T07:23:17.507Z,7.76
2022-11-16T07:24:23.017Z,7.78
2022-11-16T07:25:25.396Z,7.79
2022-11-16T07:26:29.725Z,7.76
2022-11-16T07:27:37.496Z,7.75
2022-11-16T07:28:45.027Z,7.76
2022-11-16T07:29:51.285Z,7.78
2022-11-16T07:31:11.486Z,7.76
2022-11-16T07:32:16.126Z,7.74
2022-11-16T07:33:47.927Z,7.74
2022-11-16T07:35:13.606Z,7.78
2022-11-16T07:36:17.333Z,7.81
2022-11-16T07:37:20.392Z,7.83
2022-11-16T07:38:23.677Z,7.85
2022-11-16T07:39:26.337Z,7.86
2022-11-16T07:40:31.108Z,7.86
2022-11-16T07:41:33.558Z,7.81
2022-11-16T07:42:46.169Z,7.78
2022-11-16T07:43:54.443Z,7.81
2022-11-16T07:45:05.249Z,7.84
2022-11-16T07:46:45.336Z,7.86
2022-11-16T07:47:40.769Z,7.87
2022-11-16T07:48:48.452Z,7.87
2022-11-16T07:49:54.210Z,7.90
2022-11-16T07:51:06.393Z,7.91
2022-11-16T07:52:11.239Z,7.90
2022-11-16T07:53:28.327Z,7.93
2022-11-16T07:54:30.571Z,7.96
2022-11-16T07:55:34.219Z,7.99
2022-11-16T07:56:38.709Z,8.01
2022-11-16T07:57:41.991Z,8.02
2022-11-16T07:58:45.886Z,8.03
2022-11-16T07:59:48.896Z,8.00
2022-11-16T08:00:51.895Z,8.03
2022-11-16T08:01:55.875Z,8.03
2022-11-16T08:02:58.431Z,8.07
2022-11-16T08:04:06.585Z,8.08
2022-11-16T08:05:09.217Z,8.08
2022-11-16T08:06:17.172Z,8.10
2022-11-16T08:07:20.407Z,8.11
2022-11-16T08:08:27.907Z,8.11
2022-11-16T08:09:30.756Z,8.11
2022-11-16T08:10:33.845Z,8.06
2022-11-16T08:11:36.476Z,8.11
2022-11-16T08:12:39.478Z,8.11
2022-11-16T08:13:43.035Z,8.14
2022-11-16T08:14:45.944Z,8.18
2022-11-16T08:15:49.493Z,8.17
2022-11-16T08:16:52.303Z,8.18
2022-11-16T08:17:54.775Z,8.15
2022-11-16T08:18:57.493Z,8.19
2022-11-16T08:19:59.938Z,8.20
2022-11-16T08:21:05.652Z,8.19
2022-11-16T08:22:08.662Z,8.22
2022-11-16T08:23:10.942Z,8.20
2022-11-16T08:24:13.626Z,8.28
2022-11-16T08:25:18.012Z,8.31
2022-11-16T08:26:23.038Z,8.30
2022-11-16T08:27:33.444Z,8.31
2022-11-16T08:28:37.228Z,8.31
2022-11-16T08:29:39.538Z,8.33
2022-11-16T08:30:51.008Z,8.35
2022-11-16T08:31:56.197Z,8.34
2022-11-16T08:32:59.201Z,8.39
2022-11-16T08:34:01.543Z,8.34
2022-11-16T08:35:05.176Z,8.41
2022-11-16T08:36:13.996Z,8.42
2022-11-16T08:37:17.222Z,8.31
2022-11-16T08:38:21.391Z,8.38
2022-11-16T08:39:28.028Z,8.39
2022-11-16T08:40:30.350Z,8.40
2022-11-16T08:41:32.838Z,8.34
2022-11-16T08:42:38.230Z,8.36
2022-11-16T08:43:44.733Z,8.30
2022-11-16T08:44:47.151Z,8.35
2022-11-16T08:45:53.517Z,8.38
2022-11-16T08:46:56.025Z,8.40
2022-11-16T08:48:22.124Z,8.48
2022-11-16T08:49:26.877Z,8.47
2022-11-16T08:50:29.344Z,8.47
2022-11-16T08:51:32.149Z,8.48
2022-11-16T08:52:39.348Z,8.50
2022-11-16T08:53:42.042Z,8.47
2022-11-16T08:54:44.384Z,8.44
2022-11-16T08:55:46.899Z,8.42
2022-11-16T08:56:49.403Z,8.45
2022-11-16T08:57:53.706Z,8.44
2022-11-16T08:58:59.763Z,8.48
2022-11-16T09:00:04.929Z,8.47
2022-11-16T09:01:10.364Z,8.49
2022-11-16T09:02:12.959Z,8.55
2022-11-16T09:03:15.283Z,8.51
2022-11-16T09:04:19.443Z,8.50
2022-11-16T09:05:21.916Z,8.45
2022-11-16T09:06:25.682Z,8.48
2022-11-16T09:07:28.427Z,8.49
2022-11-16T09:08:31.892Z,8.50
2022-11-16T09:09:34.860Z,8.47
2022-11-16T09:10:37.909Z,8.48
2022-11-16T09:11:40.225Z,8.51
2022-11-16T09:12:42.438Z,8.53
2022-11-16T09:13:46.563Z,8.50
2022-11-16T09:14:49.112Z,8.42
2022-11-16T09:15:58.904Z,8.45
2022-11-16T09:17:01.166Z,8.49
2022-11-16T09:18:03.635Z,8.49
2022-11-16T09:19:06.161Z,8.50
2022-11-16T09:20:09.319Z,8.57
2022-11-16T09:21:11.673Z,8.53
2022-11-16T09:22:16.146Z,8.51
2022-11-16T09:23:23.851Z,8.47
2022-11-16T09:24:27.663Z,8.52
2022-11-16T09:25:29.957Z,8.55
2022-11-16T09:26:32.832Z,8.57
2022-11-16T09:27:35.076Z,8.58
2022-11-16T09:28:37.824Z,8.58
2022-11-16T09:29:40.125Z,8.61
2022-11-16T09:30:43.749Z,8.63
2022-11-16T09:31:46.190Z,8.64
2022-11-16T09:32:48.527Z,8.66
2022-11-16T09:33:54.049Z,8.65
2022-11-16T09:34:57.099Z,8.66
2022-11-16T09:36:08.072Z,8.70
2022-11-16T09:37:10.288Z,8.72
2022-11-16T09:38:19.093Z,8.74
2022-11-16T09:39:32.642Z,8.72
2022-11-16T09:40:38.977Z,8.72
2022-11-16T09:42:00.104Z,8.81
2022-11-16T09:43:02.426Z,8.83
2022-11-16T09:44:07.664Z,8.89
2022-11-16T09:45:25.129Z,8.89
2022-11-16T09:46:33.189Z,8.91
2022-11-16T09:47:50.017Z,8.94
2022-11-16T09:48:54.338Z,8.93
2022-11-16T09:50:03.588Z,8.97
2022-11-16T09:51:10.350Z,9.00
2022-11-16T09:52:43.401Z,8.95
2022-11-16T09:53:51.535Z,8.97
2022-11-16T09:54:56.284Z,8.97
2022-11-16T09:56:08.719Z,8.97
2022-11-16T09:57:15.243Z,8.96
2022-11-16T09:58:27.353Z,8.93
2022-11-16T09:59:45.450Z,8.91
2022-11-16T10:00:56.467Z,8.82
2022-11-16T10:02:25.803Z,8.95
2022-11-16T10:03:32.193Z,8.91
2022-11-16T10:04:58.010Z,8.92
2022-11-16T10:06:06.797Z,8.88
2022-11-16T10:07:15.581Z,8.87
2022-11-16T10:08:30.696Z,8.92
2022-11-16T10:09:33.214Z,8.90
2022-11-16T10:10:40.232Z,8.83
2022-11-16T10:11:59.178Z,8.87
2022-11-16T10:13:26.482Z,8.88
2022-11-16T10:14:31.646Z,8.79
2022-11-16T10:15:46.334Z,8.86
2022-11-16T10:17:15.017Z,8.88
2022-11-16T10:18:28.813Z,8.89
2022-11-16T10:19:50.333Z,8.91
2022-11-16T10:21:02.243Z,8.86
2022-11-16T10:22:54.401Z,8.85
2022-11-16T10:24:06.108Z,8.94
2022-11-16T10:25:23.221Z,8.92
2022-11-16T10:26:44.227Z,8.92
2022-11-16T10:28:17.012Z,8.93
2022-11-16T10:29:46.692Z,8.99
2022-11-16T10:31:18.029Z,9.00
2022-11-16T10:32:29.096Z,8.98
2022-11-16T10:33:36.609Z,8.96
2022-11-16T10:35:02.528Z,8.99
2022-11-16T10:36:12.116Z,8.98
2022-11-16T10:37:14.607Z,8.92
2022-11-16T10:38:20.398Z,8.93
2022-11-16T10:39:24.568Z,8.92
2022-11-16T10:40:32.641Z,8.95
2022-11-16T10:41:42.553Z,8.95
2022-11-16T10:42:52.126Z,8.97
2022-11-16T10:43:58.622Z,8.94
2022-11-16T10:45:18.144Z,8.93
2022-11-16T10:46:44.816Z,9.00
2022-11-16T10:47:57.323Z,9.02
2022-11-16T10:49:18.489Z,9.06
2022-11-16T10:50:48.129Z,9.08
2022-11-16T10:51:50.489Z,9.06
2022-11-16T10:52:52.833Z,8.93
2022-11-16T10:53:56.235Z,8.98
2022-11-16T10:54:58.531Z,9.05
2022-11-16T10:56:15.733Z,9.14
2022-11-16T10:57:18.459Z,9.15
2022-11-16T10:58:20.956Z,9.18
2022-11-16T10:59:43.507Z,9.03
2022-11-16T11:00:52.007Z,9.08
2022-11-16T11:01:54.651Z,9.05
2022-11-16T11:02:56.989Z,9.05
2022-11-16T11:04:30.367Z,9.06
2022-11-16T11:05:35.496Z,9.14
2022-11-16T11:06:38.993Z,9.15
2022-11-16T11:07:56.839Z,9.10
2022-11-16T11:09:25.621Z,9.14
2022-11-16T11:10:28.438Z,9.08
2022-11-16T11:11:49.103Z,9.08
2022-11-16T11:13:26.792Z,9.14
2022-11-16T11:14:29.416Z,9.08
2022-11-16T11:15:32.159Z,9.11
2022-11-16T11:16:35.525Z,9.02
2022-11-16T11:17:49.674Z,9.04
2022-11-16T11:18:51.953Z,9.10
2022-11-16T11:20:11.715Z,9.11
2022-11-16T11:21:19.426Z,9.11
2022-11-16T11:22:21.766Z,9.06
2022-11-16T11:23:25.664Z,9.00
2022-11-16T11:24:44.032Z,9.02
2022-11-16T11:25:53.978Z,9.05
2022-11-16T11:26:59.592Z,9.09
2022-11-16T11:28:20.497Z,9.13
2022-11-16T11:29:32.667Z,9.12
2022-11-16T11:30:36.088Z,9.24
2022-11-16T11:31:49.074Z,9.17
2022-11-16T11:32:53.116Z,9.14
2022-11-16T11:33:59.751Z,9.16
2022-11-16T11:35:03.118Z,9.15
2022-11-16T11:36:22.848Z,9.19
2022-11-16T11:37:35.814Z,9.13
2022-11-16T11:38:56.678Z,9.22
2022-11-16T11:40:19.695Z,9.21
2022-11-16T11:41:21.986Z,9.23
2022-11-16T11:42:24.284Z,9.29
2022-11-16T11:43:27.802Z,9.29
2022-11-16T11:44:58.795Z,9.31
2022-11-16T11:46:16.578Z,9.27
2022-11-16T11:49:15.196Z,9.22
2022-11-16T11:50:41.023Z,9.25
2022-11-16T11:51:47.158Z,9.22
2022-11-16T11:53:05.749Z,9.20
2022-11-16T11:54:21.046Z,9.16
2022-11-16T11:55:23.911Z,9.16
2022-11-16T11:56:28.837Z,9.18
2022-11-16T11:57:35.059Z,9.24
2022-11-16T11:58:39.665Z,9.18
2022-11-16T11:59:42.231Z,9.18
2022-11-16T12:01:13.169Z,9.18
2022-11-16T12:02:17.892Z,9.18
2022-11-16T12:03:41.556Z,9.12
2022-11-16T12:05:05.890Z,9.17
2022-11-16T12:06:43.642Z,9.13
2022-11-16T12:07:56.879Z,9.12
2022-11-16T12:09:11.092Z,9.17
2022-11-16T12:10:38.446Z,9.07
2022-11-16T12:12:10.470Z,9.08
2022-11-16T12:13:31.514Z,9.09
2022-11-16T12:14:56.004Z,9.08
2022-11-16T12:16:11.542Z,9.07
2022-11-16T12:17:45.612Z,9.06
2022-11-16T12:19:09.773Z,9.08
2022-11-16T12:20:33.193Z,9.04
2022-11-16T12:21:53.515Z,9.05
2022-11-16T12:23:14.812Z,9.05
2022-11-16T12:24:50.082Z,9.05
2022-11-16T12:26:17.143Z,9.06
2022-11-16T12:27:58.447Z,9.06
2022-11-16T12:29:26.083Z,9.02
2022-11-16T12:30:28.457Z,9.04
2022-11-16T12:31:46.700Z,9.05
2022-11-16T12:33:16.970Z,9.08
2022-11-16T12:34:20.475Z,9.07
2022-11-16T12:35:29.073Z,9.09
2022-11-16T12:36:31.749Z,9.06
2022-11-16T12:38:00.810Z,9.06
2022-11-16T12:39:34.602Z,9.04
2022-11-16T12:40:52.016Z,9.06
2022-11-16T12:42:03.784Z,9.09
2022-11-16T12:43:35.587Z,9.03
2022-11-16T12:44:50.333Z,9.08
2022-11-16T12:46:11.505Z,9.04
2022-11-16T12:47:40.258Z,9.03
2022-11-16T12:48:59.388Z,9.03
2022-11-16T12:50:30.806Z,9.06
2022-11-16T12:52:07.004Z,9.05
2022-11-16T12:53:32.453Z,9.06
2022-11-16T12:55:24.223Z,9.07
2022-11-16T12:56:38.118Z,9.08
2022-11-16T12:58:16.054Z,9.09
2022-11-16T12:59:39.302Z,9.07
2022-11-16T13:01:00.000Z,9.08
2022-11-16T13:02:11.387Z,9.07
2022-11-16T13:03:22.155Z,9.05
2022-11-16T13:04:47.601Z,9.08
2022-11-16T13:05:57.883Z,9.11
2022-11-16T13:07:26.912Z,9.08
2022-11-16T13:08:41.485Z,9.10
2022-11-16T13:09:49.406Z,9.08
2022-11-16T13:11:05.602Z,9.09
2022-11-16T13:12:15.429Z,9.09
2022-11-16T13:13:36.257Z,9.08
2022-11-16T13:14:42.029Z,9.12
2022-11-16T13:15:48.081Z,9.08
2022-11-16T13:16:51.869Z,9.08
2022-11-16T13:17:58.559Z,9.09
2022-11-16T13:19:03.956Z,9.07
2022-11-16T13:20:10.219Z,9.07
2022-11-16T13:21:21.112Z,9.09
2022-11-16T13:22:28.248Z,9.08
2022-11-16T13:23:54.917Z,9.17
2022-11-16T13:25:42.725Z,9.13
2022-11-16T13:26:59.305Z,9.12
2022-11-16T13:28:36.713Z,9.06
2022-11-16T13:30:11.425Z,9.07
2022-11-16T13:31:16.155Z,9.09
2022-11-16T13:32:37.584Z,9.08
2022-11-16T13:34:01.432Z,9.06
2022-11-16T13:35:07.032Z,9.09
2022-11-16T13:36:32.476Z,9.08
2022-11-16T13:37:43.565Z,9.10
2022-11-16T13:38:55.078Z,9.09
2022-11-16T13:39:58.715Z,9.12
2022-11-16T13:41:33.821Z,9.09
2022-11-16T13:42:45.474Z,9.12
2022-11-16T13:43:49.764Z,9.08
2022-11-16T13:44:53.466Z,9.16
2022-11-16T13:45:59.746Z,9.12
2022-11-16T13:47:06.122Z,9.09
2022-11-16T13:48:24.655Z,9.07
2022-11-16T13:49:32.572Z,9.15
2022-11-16T13:50:38.435Z,9.13
2022-11-16T13:51:52.081Z,9.12
2022-11-16T13:54:59.349Z,9.09
2022-11-16T13:56:07.464Z,9.08
2022-11-16T13:57:31.019Z,9.12
2022-11-16T13:58:35.974Z,9.09
2022-11-16T13:59:38.763Z,9.10
2022-11-16T14:00:41.752Z,9.10
2022-11-16T14:01:59.173Z,9.11
2022-11-16T14:03:18.967Z,9.10
2022-11-16T14:04:41.986Z,9.08
2022-11-16T14:05:47.381Z,9.05
2022-11-16T14:06:50.207Z,9.10
2022-11-16T14:07:52.647Z,9.11
2022-11-16T14:08:58.601Z,9.08
2022-11-16T14:10:02.116Z,9.09
2022-11-16T14:11:25.150Z,9.08
2022-11-16T14:12:46.413Z,9.06
2022-11-16T14:13:49.129Z,9.09
2022-11-16T14:15:12.761Z,9.07
2022-11-16T14:16:15.069Z,9.05
2022-11-16T14:18:00.445Z,9.05
2022-11-16T14:19:05.604Z,9.07
2022-11-16T14:20:17.111Z,9.05
2022-11-16T14:21:37.186Z,9.06
2022-11-16T14:22:56.293Z,9.06
2022-11-16T14:24:07.552Z,9.06
2022-11-16T14:25:48.724Z,9.08
2022-11-16T14:27:13.412Z,9.06
2022-11-16T14:28:47.481Z,9.04
2022-11-16T14:30:00.560Z,9.05
2022-11-16T14:31:26.855Z,9.03
2022-11-16T14:32:41.255Z,9.02
2022-11-16T14:33:51.260Z,9.06
2022-11-16T14:34:58.394Z,9.06
2022-11-16T14:36:03.822Z,9.04
2022-11-16T14:37:14.234Z,9.04
2022-11-16T14:38:36.873Z,9.05
2022-11-16T14:39:44.239Z,9.05
2022-11-16T14:40:48.547Z,9.04
2022-11-16T14:41:50.861Z,9.07
2022-11-16T14:44:24.651Z,9.01
2022-11-16T14:45:33.079Z,9.05
2022-11-16T14:46:37.278Z,9.04
2022-11-16T14:47:39.876Z,9.00
2022-11-16T14:48:46.442Z,9.02
2022-11-16T14:49:49.536Z,9.02
2022-11-16T14:51:07.358Z,9.00
2022-11-16T14:52:11.436Z,9.00
2022-11-16T14:53:17.975Z,9.02
2022-11-16T14:54:46.132Z,9.03
2022-11-16T14:55:48.606Z,9.02
2022-11-16T14:57:15.202Z,9.03
2022-11-16T14:58:23.754Z,9.02
2022-11-16T14:59:26.943Z,8.99
2022-11-16T15:00:30.512Z,9.02
2022-11-16T15:01:39.312Z,9.03
2022-11-16T15:02:46.939Z,9.03
2022-11-16T15:04:02.701Z,9.03
2022-11-16T15:05:05.324Z,9.02
2022-11-16T15:06:08.573Z,9.01
2022-11-16T15:07:13.101Z,9.00
2022-11-16T15:08:19.539Z,9.01
2022-11-16T15:09:29.968Z,9.04
2022-11-16T15:10:32.358Z,9.02
2022-11-16T15:11:58.972Z,9.03
2022-11-16T15:13:01.449Z,9.02
2022-11-16T15:14:03.755Z,9.01
2022-11-16T15:15:13.385Z,9.04
2022-11-16T15:16:18.575Z,9.02
2022-11-16T15:17:27.217Z,9.02
2022-11-16T15:18:32.674Z,9.00
2022-11-16T15:19:35.831Z,9.00
2022-11-16T15:20:47.013Z,9.03
2022-11-16T15:21:52.565Z,9.01
2022-11-16T15:22:58.530Z,9.03
2022-11-16T15:24:28.900Z,9.01
2022-11-16T15:25:31.366Z,8.99
2022-11-16T15:26:33.670Z,9.00
2022-11-16T15:27:40.507Z,8.98
2022-11-16T15:28:48.750Z,9.00
2022-11-16T15:29:52.707Z,8.99
2022-11-16T15:31:02.150Z,9.00
2022-11-16T15:32:06.861Z,8.99
2022-11-16T15:33:15.388Z,9.01
2022-11-16T15:34:19.261Z,9.01
2022-11-16T15:35:25.049Z,8.99
2022-11-16T15:36:39.117Z,9.01
2022-11-16T15:37:41.410Z,9.00
2022-11-16T15:38:43.745Z,9.00
2022-11-16T15:39:46.541Z,9.01
2022-11-16T15:41:00.678Z,9.03
2022-11-16T15:42:04.496Z,9.03
2022-11-16T15:43:07.932Z,9.01
2022-11-16T15:44:16.357Z,8.99
2022-11-16T15:45:27.577Z,9.02
2022-11-16T15:46:33.345Z,9.03
2022-11-16T15:47:37.544Z,9.02
2022-11-16T15:48:40.445Z,8.99
2022-11-16T15:49:44.302Z,8.99
2022-11-16T15:51:16.221Z,9.02
2022-11-16T15:52:53.033Z,9.03
2022-11-16T15:54:11.856Z,9.02
2022-11-16T15:55:31.880Z,9.04